Terminal Aerodrome Forecast
Issued by NWS Charleston, WV

Current Version | Previous Version | Graphics & Text | Print | Product List | Glossary On
Versions: 1 2 3 4 5 6 7 8 9 10 11 12 13 14 15 16 17 18 19 20 21 22 23 24 25 26 27
000
FTUS41 KRLX 261300 AAA
TAFEKN
TAF AMD
KEKN 261327Z 2613/2712 00000KT 3/4SM -SN BR FEW009 OVC015
      TEMPO 2613/2614 3SM -SHSN BR BKN022
     FM261500 00000KT 4SM -SHSN SCT001 OVC015
     FM262200 VRB03KT 2SM BR OVC015
     FM270000 27004KT 3SM BR OVC020=

USA.gov is the U.S. government's official web portal to all federal, state and local government web resources and services.